createdAt,value
2018-02-08T00:00:20.216Z,1.87
2018-02-08T00:01:20.185Z,1.76
2018-02-08T00:02:20.160Z,1.97
2018-02-08T00:03:20.115Z,1.57
2018-02-08T00:04:20.082Z,1.57
2018-02-08T00:05:20.052Z,1.67
2018-02-08T00:06:20.017Z,1.67
2018-02-08T00:07:19.981Z,1.76
2018-02-08T00:08:19.948Z,1.97
2018-02-08T00:09:19.913Z,1.76
2018-02-08T00:10:19.883Z,1.86
2018-02-08T00:11:19.846Z,1.86
2018-02-08T00:12:19.815Z,1.97
2018-02-08T00:13:19.781Z,1.86
2018-02-08T00:14:19.747Z,1.96
2018-02-08T00:15:19.712Z,1.97
2018-02-08T00:16:19.680Z,1.76
2018-02-08T00:17:19.651Z,1.96
2018-02-08T00:18:19.612Z,1.76
2018-02-08T00:19:19.575Z,1.86
2018-02-08T00:20:19.545Z,1.96
2018-02-08T00:21:19.520Z,1.86
2018-02-08T00:22:19.475Z,1.86
2018-02-08T00:23:19.444Z,1.96
2018-02-08T00:24:19.435Z,1.96
2018-02-08T00:25:19.375Z,1.96
2018-02-08T00:26:19.338Z,1.96
2018-02-08T00:27:19.307Z,1.86
2018-02-08T00:28:19.274Z,2.06
2018-02-08T00:29:19.239Z,2.15
2018-02-08T00:30:19.214Z,2.15
2018-02-08T00:31:19.169Z,2.06
2018-02-08T00:32:19.149Z,2.06
2018-02-08T00:33:19.106Z,2.15
2018-02-08T00:34:19.074Z,1.86
2018-02-08T00:35:19.040Z,2.15
2018-02-08T00:36:19.004Z,2.35
2018-02-08T00:37:18.975Z,2.35
2018-02-08T00:38:18.936Z,2.25
2018-02-08T00:39:18.903Z,2.35
2018-02-08T00:40:18.868Z,2.35
2018-02-08T00:41:18.839Z,2.35
2018-02-08T00:42:18.802Z,2.25
2018-02-08T00:43:18.768Z,2.25
2018-02-08T00:44:18.737Z,2.25
2018-02-08T00:45:18.699Z,2.25
2018-02-08T00:46:18.669Z,2.15
2018-02-08T00:47:18.631Z,2.06
2018-02-08T00:48:18.597Z,2.15
2018-02-08T00:49:18.565Z,2.35
2018-02-08T00:50:18.533Z,2.15
2018-02-08T00:51:18.495Z,2.25
2018-02-08T00:52:18.460Z,2.06
2018-02-08T00:53:18.431Z,2.06
2018-02-08T00:54:18.395Z,2.45
2018-02-08T00:55:18.360Z,2.45
2018-02-08T00:56:18.326Z,2.25
2018-02-08T00:57:18.293Z,2.25
2018-02-08T00:58:18.263Z,2.35
2018-02-08T00:59:18.229Z,2.25
2018-02-08T01:00:18.193Z,2.25
2018-02-08T01:01:18.157Z,2.45
2018-02-08T01:02:18.125Z,2.35
2018-02-08T01:03:18.093Z,2.35
2018-02-08T01:04:18.058Z,2.25
2018-02-08T01:05:18.025Z,2.55
2018-02-08T01:06:17.987Z,2.25
2018-02-08T01:07:17.953Z,2.45
2018-02-08T01:08:17.920Z,2.45
2018-02-08T01:09:17.885Z,2.45
2018-02-08T01:10:17.861Z,2.45
2018-02-08T01:11:17.843Z,2.55
2018-02-08T01:12:17.784Z,2.45
2018-02-08T01:13:17.749Z,2.45
2018-02-08T01:14:17.719Z,2.45
2018-02-08T01:15:17.683Z,2.64
2018-02-08T01:16:17.651Z,2.45
2018-02-08T01:17:17.612Z,2.55
2018-02-08T01:18:17.579Z,2.44
2018-02-08T01:19:17.549Z,2.45
2018-02-08T01:20:17.514Z,2.64
2018-02-08T01:21:17.478Z,2.44
2018-02-08T01:22:17.450Z,2.74
2018-02-08T01:23:17.404Z,2.64
2018-02-08T01:24:17.380Z,2.55
2018-02-08T01:25:17.341Z,2.55
2018-02-08T01:26:17.313Z,2.74
2018-02-08T01:27:17.278Z,2.64
2018-02-08T01:28:17.239Z,2.44
2018-02-08T01:29:17.204Z,2.83
2018-02-08T01:30:17.172Z,2.93
2018-02-08T01:31:17.134Z,2.83
2018-02-08T01:32:17.148Z,2.93
2018-02-08T01:33:17.067Z,2.73
2018-02-08T01:34:17.038Z,2.44
2018-02-08T01:35:17.002Z,2.93
2018-02-08T01:36:16.968Z,3.03
2018-02-08T01:37:16.936Z,3.03
2018-02-08T01:38:16.899Z,3.13
2018-02-08T01:39:16.865Z,3.03
2018-02-08T01:40:16.875Z,3.03
2018-02-08T01:41:16.803Z,2.83
2018-02-08T01:42:16.764Z,2.83
2018-02-08T01:43:16.728Z,2.93
2018-02-08T01:44:16.695Z,3.13
2018-02-08T01:45:16.657Z,2.83
2018-02-08T01:46:16.632Z,3.03
2018-02-08T01:47:16.597Z,2.93
2018-02-08T01:48:16.561Z,3.03
2018-02-08T01:49:16.529Z,3.13
2018-02-08T01:50:16.489Z,3.03
2018-02-08T01:51:16.457Z,2.93
2018-02-08T01:52:16.423Z,2.83
2018-02-08T01:53:16.389Z,3.13
2018-02-08T01:54:16.353Z,3.13
2018-02-08T01:55:16.315Z,3.13
2018-02-08T01:56:16.288Z,3.03
2018-02-08T01:57:16.248Z,3.13
2018-02-08T01:58:16.216Z,3.03
2018-02-08T01:59:16.184Z,3.32
2018-02-08T02:00:16.148Z,3.03
2018-02-08T02:01:16.115Z,3.32
2018-02-08T02:02:16.078Z,3.13
2018-02-08T02:03:16.046Z,3.13
2018-02-08T02:04:16.012Z,3.22
2018-02-08T02:05:15.977Z,3.03
2018-02-08T02:06:15.949Z,3.42
2018-02-08T02:07:15.905Z,3.32
2018-02-08T02:08:15.875Z,3.42
2018-02-08T02:09:15.840Z,3.13
2018-02-08T02:10:15.813Z,3.03
2018-02-08T02:11:15.770Z,3.42
2018-02-08T02:12:15.741Z,3.03
2018-02-08T02:13:15.702Z,3.42
2018-02-08T02:14:15.669Z,3.13
2018-02-08T02:15:15.635Z,3.52
2018-02-08T02:16:15.602Z,3.42
2018-02-08T02:17:15.566Z,3.52
2018-02-08T02:18:15.532Z,3.52
2018-02-08T02:19:15.496Z,3.52
2018-02-08T02:20:15.468Z,3.32
2018-02-08T02:21:15.433Z,3.32
2018-02-08T02:22:15.401Z,3.52
2018-02-08T02:23:15.367Z,3.42
2018-02-08T02:24:15.324Z,3.32
2018-02-08T02:25:15.291Z,3.22
2018-02-08T02:26:15.264Z,3.61
2018-02-08T02:27:15.223Z,3.70
2018-02-08T02:28:15.191Z,3.80
2018-02-08T02:29:15.155Z,3.61
2018-02-08T02:30:15.120Z,3.70
2018-02-08T02:31:15.134Z,3.61
2018-02-08T02:32:15.054Z,3.70
2018-02-08T02:33:15.025Z,3.70
2018-02-08T02:34:14.987Z,3.51
2018-02-08T02:35:14.949Z,3.61
2018-02-08T02:36:14.918Z,3.61
2018-02-08T02:37:14.880Z,4.10
2018-02-08T02:38:14.851Z,3.51
2018-02-08T02:39:14.812Z,3.90
2018-02-08T02:40:14.780Z,4.00
2018-02-08T02:41:14.746Z,3.61
2018-02-08T02:42:14.710Z,3.80
2018-02-08T02:43:14.681Z,3.70
2018-02-08T02:44:14.638Z,3.70
2018-02-08T02:45:14.606Z,3.70
2018-02-08T02:46:14.574Z,4.00
2018-02-08T02:47:14.535Z,3.61
2018-02-08T02:48:14.508Z,3.70
2018-02-08T02:49:14.471Z,3.70
2018-02-08T02:50:14.439Z,3.80
2018-02-08T02:51:14.402Z,4.00
2018-02-08T02:52:14.371Z,3.80
2018-02-08T02:53:14.334Z,3.70
2018-02-08T02:54:14.303Z,3.90
2018-02-08T02:55:14.268Z,3.80
2018-02-08T02:56:14.230Z,3.80
2018-02-08T02:57:14.203Z,3.70
2018-02-08T02:58:14.163Z,3.80
2018-02-08T02:59:14.132Z,3.70
2018-02-08T03:00:14.095Z,3.80
2018-02-08T03:01:14.064Z,3.89
2018-02-08T03:02:14.031Z,3.70
2018-02-08T03:03:13.993Z,4.09
2018-02-08T03:04:13.959Z,4.19
2018-02-08T03:05:13.929Z,4.19
2018-02-08T03:06:13.890Z,4.09
2018-02-08T03:07:13.853Z,3.89
2018-02-08T03:08:13.825Z,4.19
2018-02-08T03:09:13.789Z,4.19
2018-02-08T03:10:13.757Z,4.09
2018-02-08T03:11:13.717Z,4.09
2018-02-08T03:12:13.684Z,4.19
2018-02-08T03:13:13.652Z,4.19
2018-02-08T03:14:13.613Z,4.28
2018-02-08T03:15:13.590Z,4.09
2018-02-08T03:16:13.549Z,4.19
2018-02-08T03:17:13.516Z,4.09
2018-02-08T03:18:13.485Z,4.28
2018-02-08T03:19:13.488Z,4.28
2018-02-08T03:20:13.407Z,4.28
2018-02-08T03:21:13.377Z,4.18
2018-02-08T03:22:13.344Z,4.28
2018-02-08T03:23:13.304Z,3.99
2018-02-08T03:24:13.268Z,4.09
2018-02-08T03:25:13.244Z,4.28
2018-02-08T03:26:13.204Z,3.99
2018-02-08T03:27:13.174Z,4.09
2018-02-08T03:28:13.133Z,3.99
2018-02-08T03:29:13.094Z,4.18
2018-02-08T03:30:13.076Z,4.09
2018-02-08T03:31:13.032Z,3.99
2018-02-08T03:32:12.997Z,4.18
2018-02-08T03:33:12.967Z,3.89
2018-02-08T03:34:12.936Z,4.18
2018-02-08T03:35:12.903Z,4.18
2018-02-08T03:36:12.877Z,4.18
2018-02-08T03:37:12.823Z,4.18
2018-02-08T03:38:12.793Z,4.08
2018-02-08T03:39:12.752Z,4.08
2018-02-08T03:40:12.728Z,4.08
2018-02-08T03:41:12.697Z,4.18
2018-02-08T03:42:12.654Z,4.38
2018-02-08T03:43:12.619Z,4.28
2018-02-08T03:44:12.587Z,4.47
2018-02-08T03:45:12.547Z,4.47
2018-02-08T03:46:12.516Z,4.38
2018-02-08T03:47:12.482Z,4.18
2018-02-08T03:48:12.447Z,4.38
2018-02-08T03:49:12.412Z,4.38
2018-02-08T03:50:12.384Z,4.28
2018-02-08T03:51:12.342Z,4.28
2018-02-08T03:52:12.311Z,4.28
2018-02-08T03:53:12.275Z,4.28
2018-02-08T03:54:12.239Z,4.57
2018-02-08T03:55:12.204Z,4.38
2018-02-08T03:56:12.171Z,4.57
2018-02-08T03:57:12.138Z,4.37
2018-02-08T03:58:12.102Z,4.38
2018-02-08T03:59:12.067Z,4.67
2018-02-08T04:00:12.042Z,4.37
2018-02-08T04:01:12.002Z,4.37
2018-02-08T04:02:11.969Z,4.57
2018-02-08T04:03:11.933Z,4.76
2018-02-08T04:04:11.901Z,4.57
2018-02-08T04:05:11.870Z,4.57
2018-02-08T04:06:11.826Z,4.47
2018-02-08T04:07:11.795Z,4.27
2018-02-08T04:08:11.761Z,4.86
2018-02-08T04:09:11.725Z,4.57
2018-02-08T04:10:11.694Z,4.66
2018-02-08T04:11:11.653Z,4.57
2018-02-08T04:12:11.622Z,4.27
2018-02-08T04:13:11.589Z,4.66
2018-02-08T04:14:11.561Z,4.66
2018-02-08T04:15:11.523Z,4.66
2018-02-08T04:16:11.485Z,4.66
2018-02-08T04:17:11.452Z,4.66
2018-02-08T04:18:11.416Z,4.57
2018-02-08T04:19:11.381Z,4.66
2018-02-08T04:20:11.350Z,5.05
2018-02-08T04:21:11.310Z,4.76
2018-02-08T04:22:11.278Z,4.66
2018-02-08T04:23:11.241Z,4.57
2018-02-08T04:24:11.210Z,4.56
2018-02-08T04:25:11.182Z,5.05
2018-02-08T04:26:11.142Z,5.05
2018-02-08T04:27:11.104Z,5.15
2018-02-08T04:28:11.070Z,4.86
2018-02-08T04:29:11.038Z,4.66
2018-02-08T04:30:11.040Z,4.76
2018-02-08T04:31:10.964Z,4.66
2018-02-08T04:32:10.931Z,5.15
2018-02-08T04:33:10.898Z,5.15
2018-02-08T04:34:10.863Z,4.85
2018-02-08T04:35:10.830Z,5.05
2018-02-08T04:36:10.795Z,5.05
2018-02-08T04:37:10.760Z,5.05
2018-02-08T04:38:10.727Z,5.05
2018-02-08T04:39:10.690Z,4.95
2018-02-08T04:40:10.663Z,5.15
2018-02-08T04:41:10.623Z,4.56
2018-02-08T04:42:10.585Z,4.85
2018-02-08T04:43:10.554Z,4.66
2018-02-08T04:44:10.536Z,4.85
2018-02-08T04:45:10.490Z,4.85
2018-02-08T04:46:10.450Z,5.05
2018-02-08T04:47:10.425Z,4.95
2018-02-08T04:48:10.380Z,4.95
2018-02-08T04:49:10.342Z,5.15
2018-02-08T04:50:10.312Z,4.85
2018-02-08T04:51:10.277Z,5.05
2018-02-08T04:52:10.241Z,5.05
2018-02-08T04:53:10.208Z,5.15
2018-02-08T04:54:10.170Z,4.85
2018-02-08T04:55:10.141Z,5.05
2018-02-08T04:56:10.112Z,5.15
2018-02-08T04:57:10.065Z,4.95
2018-02-08T04:58:10.037Z,5.05
2018-02-08T04:59:09.995Z,5.05
2018-02-08T05:00:09.964Z,5.05
2018-02-08T05:01:10.147Z,4.85
2018-02-08T05:02:09.919Z,5.14
2018-02-08T05:03:09.863Z,5.04
2018-02-08T05:04:09.829Z,4.94
2018-02-08T05:05:09.787Z,4.94
2018-02-08T05:06:09.756Z,5.24
2018-02-08T05:07:09.717Z,5.14
2018-02-08T05:08:09.684Z,5.04
2018-02-08T05:09:09.647Z,5.43
2018-02-08T05:10:09.613Z,5.43
2018-02-08T05:11:09.581Z,5.33
2018-02-08T05:12:09.548Z,5.33
2018-02-08T05:13:09.508Z,5.43
2018-02-08T05:14:09.476Z,5.14
2018-02-08T05:15:09.436Z,5.33
2018-02-08T05:16:09.403Z,5.24
2018-02-08T05:17:09.370Z,5.33
2018-02-08T05:18:09.331Z,5.14
2018-02-08T05:19:09.296Z,5.43
2018-02-08T05:20:09.265Z,5.52
2018-02-08T05:21:09.245Z,5.43
2018-02-08T05:22:09.192Z,5.43
2018-02-08T05:23:09.156Z,5.33
2018-02-08T05:24:09.124Z,5.62
2018-02-08T05:25:09.095Z,5.62
2018-02-08T05:26:09.050Z,5.91
2018-02-08T05:27:09.043Z,5.72
2018-02-08T05:28:08.981Z,5.52
2018-02-08T05:29:08.957Z,5.72
2018-02-08T05:30:08.919Z,5.72
2018-02-08T05:31:08.879Z,5.62
2018-02-08T05:32:08.856Z,5.62
2018-02-08T05:33:08.810Z,5.62
2018-02-08T05:34:08.769Z,5.72
2018-02-08T05:35:08.760Z,5.91
2018-02-08T05:36:08.701Z,5.81
2018-02-08T05:37:08.673Z,5.81
2018-02-08T05:38:08.631Z,5.72
2018-02-08T05:39:08.594Z,6.01
2018-02-08T05:40:08.575Z,6.01
2018-02-08T05:41:08.527Z,6.20
2018-02-08T05:42:08.495Z,6.20
2018-02-08T05:43:08.474Z,6.29
2018-02-08T05:44:08.426Z,6.20
2018-02-08T05:45:08.421Z,6.01
2018-02-08T05:46:08.373Z,6.10
2018-02-08T05:47:08.335Z,6.20
2018-02-08T05:48:08.291Z,6.01
2018-02-08T05:49:08.252Z,6.01
2018-02-08T05:50:08.277Z,6.10
2018-02-08T05:51:08.180Z,6.10
2018-02-08T05:52:08.149Z,5.91
2018-02-08T05:53:08.116Z,6.01
2018-02-08T05:54:08.098Z,5.81
2018-02-08T05:55:08.045Z,6.39
2018-02-08T05:56:08.008Z,6.29
2018-02-08T05:57:07.981Z,6.29
2018-02-08T05:58:07.940Z,6.39
2018-02-08T05:59:07.903Z,6.49
2018-02-08T06:00:07.870Z,6.39
2018-02-08T06:01:07.831Z,6.49
2018-02-08T06:02:07.797Z,6.49
2018-02-08T06:03:07.767Z,6.58
2018-02-08T06:04:07.741Z,6.39
2018-02-08T06:05:07.697Z,6.58
2018-02-08T06:06:07.659Z,6.49
2018-02-08T06:07:07.629Z,6.39
2018-02-08T06:08:07.592Z,6.29
2018-02-08T06:09:07.561Z,6.10
2018-02-08T06:10:07.522Z,6.49
2018-02-08T06:11:07.496Z,6.20
2018-02-08T06:12:07.452Z,6.10
2018-02-08T06:13:07.474Z,6.20
2018-02-08T06:14:07.383Z,6.29
2018-02-08T06:15:07.352Z,6.20
2018-02-08T06:16:07.313Z,6.20
2018-02-08T06:17:07.278Z,6.38
2018-02-08T06:18:07.244Z,6.10
2018-02-08T06:19:07.208Z,6.20
2018-02-08T06:20:07.175Z,6.20
2018-02-08T06:21:07.136Z,6.20
2018-02-08T06:22:07.119Z,6.20
2018-02-08T06:23:07.069Z,6.68
2018-02-08T06:24:07.036Z,6.38
2018-02-08T06:25:07.004Z,6.38
2018-02-08T06:26:06.976Z,6.38
2018-02-08T06:27:06.950Z,6.38
2018-02-08T06:28:06.896Z,6.48
2018-02-08T06:29:06.859Z,6.58
2018-02-08T06:30:06.830Z,6.48
2018-02-08T06:31:06.798Z,6.48
2018-02-08T06:32:06.759Z,6.48
2018-02-08T06:33:06.722Z,6.57
2018-02-08T06:34:06.695Z,6.48
2018-02-08T06:35:06.658Z,6.48
2018-02-08T06:36:06.624Z,6.38
2018-02-08T06:37:06.631Z,6.77
2018-02-08T06:38:06.546Z,6.48
2018-02-08T06:39:06.512Z,6.77
2018-02-08T06:40:06.484Z,6.38
2018-02-08T06:41:06.451Z,6.67
2018-02-08T06:42:06.411Z,6.77
2018-02-08T06:43:06.393Z,6.96
2018-02-08T06:44:06.343Z,6.77
2018-02-08T06:45:06.326Z,6.77
2018-02-08T06:46:06.278Z,6.87
2018-02-08T06:47:06.240Z,7.06
2018-02-08T06:48:06.222Z,6.96
2018-02-08T06:49:06.168Z,6.67
2018-02-08T06:50:06.132Z,6.57
2018-02-08T06:51:06.104Z,6.57
2018-02-08T06:52:06.062Z,7.06
2018-02-08T06:53:06.028Z,6.86
2018-02-08T06:54:05.994Z,6.57
2018-02-08T06:55:05.954Z,6.77
2018-02-08T06:56:05.924Z,6.86
2018-02-08T06:57:05.887Z,6.96
2018-02-08T06:58:05.856Z,7.06
2018-02-08T06:59:05.821Z,7.06
2018-02-08T07:00:05.782Z,7.06
2018-02-08T07:01:05.774Z,7.06
2018-02-08T07:02:05.717Z,7.25
2018-02-08T07:03:05.683Z,6.86
2018-02-08T07:04:05.650Z,6.96
2018-02-08T07:05:05.609Z,7.15
2018-02-08T07:06:05.583Z,6.96
2018-02-08T07:07:05.545Z,7.15
2018-02-08T07:08:05.508Z,6.96
2018-02-08T07:09:05.474Z,7.15
2018-02-08T07:10:05.439Z,7.24
2018-02-08T07:11:05.418Z,7.15
2018-02-08T07:12:05.370Z,7.44
2018-02-08T07:13:05.338Z,7.24
2018-02-08T07:14:05.302Z,7.34
2018-02-08T07:15:05.264Z,7.54
2018-02-08T07:16:05.238Z,7.34
2018-02-08T07:17:05.209Z,7.24
2018-02-08T07:18:05.167Z,7.34
2018-02-08T07:19:05.125Z,7.34
2018-02-08T07:20:05.095Z,7.15
2018-02-08T07:21:05.061Z,7.34
2018-02-08T07:22:05.025Z,7.24
2018-02-08T07:23:04.986Z,7.73
2018-02-08T07:24:04.951Z,7.73
2018-02-08T07:25:04.920Z,7.82
2018-02-08T07:26:04.897Z,7.82
2018-02-08T07:27:04.850Z,7.92
2018-02-08T07:28:04.835Z,7.53
2018-02-08T07:29:04.785Z,7.92
2018-02-08T07:30:04.745Z,7.73
2018-02-08T07:31:04.709Z,7.82
2018-02-08T07:32:04.675Z,7.82
2018-02-08T07:33:04.641Z,7.82
2018-02-08T07:34:04.611Z,7.82
2018-02-08T07:35:04.580Z,7.63
2018-02-08T07:36:04.536Z,7.82
2018-02-08T07:37:04.501Z,7.82
2018-02-08T07:38:04.470Z,7.92
2018-02-08T07:39:04.434Z,7.82
2018-02-08T07:40:04.399Z,7.92
2018-02-08T07:41:04.368Z,8.01
2018-02-08T07:42:04.330Z,8.01
2018-02-08T07:43:04.333Z,8.11
2018-02-08T07:44:04.258Z,8.11
2018-02-08T07:45:04.230Z,8.01
2018-02-08T07:46:04.196Z,8.30
2018-02-08T07:47:04.194Z,8.59
2018-02-08T07:48:04.130Z,8.88
2018-02-08T07:49:04.088Z,12.55
2018-02-08T07:50:04.076Z,23.36
2018-02-08T07:51:04.018Z,27.23
2018-02-08T07:52:03.986Z,25.17
2018-02-08T07:53:03.961Z,26.07
2018-02-08T07:54:03.926Z,25.19
2018-02-08T07:55:03.883Z,26.07
2018-02-08T07:56:03.870Z,25.95
2018-02-08T07:57:03.812Z,26.01
2018-02-08T07:58:03.778Z,26.47
2018-02-08T07:59:03.740Z,26.15
2018-02-08T08:00:03.712Z,25.88
2018-02-08T08:01:03.674Z,26.62
2018-02-08T08:02:03.687Z,25.95
2018-02-08T08:03:03.610Z,25.98
2018-02-08T08:04:03.579Z,27.04
2018-02-08T08:05:03.540Z,29.68
2018-02-08T08:06:03.507Z,30.94
2018-02-08T08:07:03.470Z,31.01
2018-02-08T08:08:03.437Z,31.20
2018-02-08T08:09:03.406Z,31.30
2018-02-08T08:10:03.376Z,31.00
2018-02-08T08:11:03.339Z,30.61
2018-02-08T08:12:03.302Z,30.02
2018-02-08T08:13:03.276Z,29.93
2018-02-08T08:14:03.240Z,29.33
2018-02-08T08:15:03.196Z,27.94
2018-02-08T08:16:03.166Z,27.73
2018-02-08T08:17:03.139Z,27.31
2018-02-08T08:18:03.099Z,26.81
2018-02-08T08:19:03.070Z,25.60
2018-02-08T08:20:03.032Z,25.00
2018-02-08T08:21:03.000Z,24.31
2018-02-08T08:22:02.967Z,23.11
2018-02-08T08:23:02.929Z,22.42
2018-02-08T08:24:02.894Z,21.82
2018-02-08T08:25:02.859Z,20.61
2018-02-08T08:26:02.837Z,20.11
2018-02-08T08:27:02.796Z,19.01
2018-02-08T08:28:02.763Z,18.31
2018-02-08T08:29:02.731Z,17.51
2018-02-08T08:30:02.701Z,17.01
2018-02-08T08:31:02.661Z,16.10
2018-02-08T08:32:02.627Z,15.20
2018-02-08T08:33:02.593Z,14.40
2018-02-08T08:34:02.566Z,13.60
2018-02-08T08:35:02.526Z,13.31
2018-02-08T08:36:02.494Z,12.10
2018-02-08T08:37:02.463Z,11.60
2018-02-08T08:38:02.427Z,10.79
2018-02-08T08:39:02.396Z,10.69
2018-02-08T08:40:02.374Z,9.99
2018-02-08T08:41:02.331Z,9.48
2018-02-08T08:42:02.296Z,8.98
2018-02-08T08:43:02.264Z,8.48
2018-02-08T08:44:02.237Z,8.07
2018-02-08T08:45:02.196Z,7.37
2018-02-08T08:46:02.162Z,6.76
2018-02-08T08:47:02.138Z,6.67
2018-02-08T08:48:02.099Z,5.96
2018-02-08T08:49:02.061Z,5.46
2018-02-08T08:50:02.038Z,5.15
2018-02-08T08:51:01.997Z,4.44
2018-02-08T08:52:01.975Z,4.64
2018-02-08T08:53:01.938Z,4.44
2018-02-08T08:54:01.904Z,3.63
2018-02-08T08:55:01.876Z,3.43
2018-02-08T08:56:06.782Z,3.43
2018-02-08T08:57:01.810Z,3.03
2018-02-08T08:58:01.773Z,2.22
2018-02-08T08:59:01.738Z,2.22
2018-02-08T09:00:01.712Z,1.81
2018-02-08T09:01:01.679Z,2.01
2018-02-08T09:02:01.660Z,1.31
2018-02-08T09:03:01.611Z,1.31
2018-02-08T09:04:01.580Z,1.61
2018-02-08T09:05:01.545Z,2.01
2018-02-08T09:06:01.509Z,1.70
2018-02-08T09:07:01.479Z,1.50
2018-02-08T09:08:01.442Z,1.40
2018-02-08T09:09:01.430Z,1.50
2018-02-08T09:10:01.376Z,1.50
2018-02-08T09:11:01.340Z,1.20
2018-02-08T09:12:01.317Z,1.30
2018-02-08T09:13:01.281Z,1.40
2018-02-08T09:14:01.256Z,1.40
2018-02-08T09:15:01.219Z,1.60
2018-02-08T09:16:01.184Z,1.60
2018-02-08T09:17:01.149Z,1.60
2018-02-08T09:18:01.129Z,1.50
2018-02-08T09:19:01.082Z,1.50
2018-02-08T09:20:01.053Z,1.50
2018-02-08T09:21:01.020Z,1.79
2018-02-08T09:22:00.987Z,1.50
2018-02-08T09:23:00.957Z,1.50
2018-02-08T09:24:00.920Z,1.50
2018-02-08T09:25:00.886Z,1.59
2018-02-08T09:26:00.867Z,1.59
2018-02-08T09:27:00.822Z,1.59
2018-02-08T09:28:00.791Z,1.59
2018-02-08T09:29:00.762Z,1.49
2018-02-08T09:30:00.726Z,1.09
2018-02-08T09:31:00.695Z,1.19
2018-02-08T09:32:00.662Z,1.19
2018-02-08T09:33:00.627Z,1.09
2018-02-08T09:34:00.598Z,1.29
2018-02-08T09:35:00.582Z,1.19
2018-02-08T09:36:00.532Z,1.19
2018-02-08T09:37:00.505Z,1.19
2018-02-08T09:38:00.468Z,1.09
2018-02-08T09:39:00.433Z,1.19
2018-02-08T09:40:00.410Z,0.79
2018-02-08T09:41:00.376Z,1.29
2018-02-08T09:42:00.337Z,1.39
2018-02-08T09:43:00.301Z,1.19
2018-02-08T09:44:00.272Z,1.29
2018-02-08T09:45:00.242Z,1.29
2018-02-08T09:46:00.209Z,1.09
2018-02-08T09:47:00.173Z,1.19
2018-02-08T09:48:00.147Z,1.09
2018-02-08T09:49:00.124Z,1.39
2018-02-08T09:50:00.080Z,1.29
2018-02-08T09:51:00.050Z,1.39
2018-02-08T09:52:00.023Z,1.19
2018-02-08T09:52:59.988Z,1.29
2018-02-08T09:53:59.952Z,1.19
2018-02-08T09:54:59.947Z,1.19
2018-02-08T09:55:59.892Z,1.39
2018-02-08T09:56:59.858Z,1.39
2018-02-08T09:57:59.850Z,1.39
2018-02-08T09:58:59.797Z,1.19
2018-02-08T09:59:59.759Z,1.29
2018-02-08T10:00:59.733Z,1.39
2018-02-08T10:01:59.698Z,1.39
2018-02-08T10:02:59.670Z,1.39
2018-02-08T10:03:59.640Z,1.29
2018-02-08T10:04:59.605Z,1.48
2018-02-08T10:05:59.576Z,1.29
2018-02-08T10:06:59.546Z,1.39
2018-02-08T10:07:59.516Z,1.39
2018-02-08T10:08:59.485Z,1.19
2018-02-08T10:09:59.451Z,1.59
2018-02-08T10:10:59.421Z,1.48
2018-02-08T10:11:59.391Z,1.48
2018-02-08T10:12:59.362Z,1.39
2018-02-08T10:13:59.332Z,1.29
2018-02-08T10:14:59.296Z,1.48
2018-02-08T10:15:59.265Z,1.39
2018-02-08T10:16:59.285Z,1.59
2018-02-08T10:17:59.209Z,1.68
2018-02-08T10:18:59.198Z,1.68
2018-02-08T10:19:59.144Z,1.48
2018-02-08T10:20:59.114Z,1.48
2018-02-08T10:21:59.085Z,1.68
2018-02-08T10:22:59.054Z,1.68
2018-02-08T10:23:59.024Z,1.48
2018-02-08T10:24:58.995Z,1.58
2018-02-08T10:25:58.979Z,1.48
2018-02-08T10:26:58.932Z,1.48
2018-02-08T10:27:58.919Z,1.58
2018-02-08T10:28:58.876Z,1.48
2018-02-08T10:29:58.846Z,1.58
2018-02-08T10:30:58.816Z,1.68
2018-02-08T10:31:58.785Z,1.48
2018-02-08T10:32:58.753Z,1.78
2018-02-08T10:33:58.728Z,1.68
2018-02-08T10:34:58.729Z,1.98
2018-02-08T10:35:58.669Z,2.08
2018-02-08T10:36:58.631Z,1.78
2018-02-08T10:37:58.613Z,1.98
2018-02-08T10:38:58.582Z,2.08
2018-02-08T10:39:58.544Z,1.88
2018-02-08T10:40:58.515Z,1.88
2018-02-08T10:41:58.482Z,1.98
2018-02-08T10:42:58.488Z,1.88
2018-02-08T10:43:58.422Z,1.78
2018-02-08T10:44:58.394Z,1.48
2018-02-08T10:45:58.365Z,1.88
2018-02-08T10:46:58.381Z,1.78
2018-02-08T10:47:58.312Z,2.08
2018-02-08T10:48:58.267Z,1.88
2018-02-08T10:49:58.267Z,1.88
2018-02-08T10:50:58.212Z,1.98
2018-02-08T10:51:58.185Z,1.78
2018-02-08T10:52:58.152Z,1.98
2018-02-08T10:53:58.123Z,1.98
2018-02-08T10:54:58.088Z,1.98
2018-02-08T10:55:58.062Z,1.88
2018-02-08T10:56:58.041Z,1.98
2018-02-08T10:57:58.004Z,1.78
2018-02-08T10:58:57.971Z,1.98
2018-02-08T10:59:57.947Z,1.98
2018-02-08T11:00:57.909Z,2.08
2018-02-08T11:01:57.883Z,1.88
2018-02-08T11:02:57.849Z,1.98
2018-02-08T11:03:57.873Z,1.88
2018-02-08T11:04:57.791Z,1.88
2018-02-08T11:05:57.761Z,1.98
2018-02-08T11:06:57.731Z,1.98
2018-02-08T11:07:57.704Z,1.98
2018-02-08T11:08:57.674Z,1.87
2018-02-08T11:09:57.641Z,1.87
2018-02-08T11:10:57.614Z,1.98
2018-02-08T11:11:57.596Z,1.98
2018-02-08T11:12:57.585Z,1.98
2018-02-08T11:13:57.522Z,1.98
2018-02-08T11:14:57.488Z,1.98
2018-02-08T11:15:57.461Z,1.98
2018-02-08T11:16:57.430Z,1.78
2018-02-08T11:17:57.403Z,1.87
2018-02-08T11:18:57.372Z,2.08
2018-02-08T11:19:57.344Z,1.87
2018-02-08T11:20:57.318Z,1.97
2018-02-08T11:21:57.282Z,1.97
2018-02-08T11:22:57.267Z,1.87
2018-02-08T11:23:57.220Z,1.87
2018-02-08T11:24:57.207Z,1.87
2018-02-08T11:25:57.166Z,2.08
2018-02-08T11:26:57.137Z,1.87
2018-02-08T11:27:57.109Z,1.87
2018-02-08T11:28:57.076Z,2.08
2018-02-08T11:29:57.050Z,1.97
2018-02-08T11:30:57.018Z,1.87
2018-02-08T11:31:56.985Z,2.17
2018-02-08T11:32:56.965Z,2.17
2018-02-08T11:33:56.929Z,2.07
2018-02-08T11:34:56.903Z,2.17
2018-02-08T11:35:56.874Z,1.87
2018-02-08T11:36:56.856Z,2.08
2018-02-08T11:37:56.814Z,2.17
2018-02-08T11:38:56.782Z,2.17
2018-02-08T11:39:56.754Z,2.07
2018-02-08T11:40:56.724Z,2.37
2018-02-08T11:41:56.696Z,2.27
2018-02-08T11:42:56.670Z,2.27
2018-02-08T11:43:56.639Z,2.17
2018-02-08T11:44:56.604Z,2.17
2018-02-08T11:45:56.578Z,2.27
2018-02-08T11:46:56.549Z,2.17
2018-02-08T11:47:56.524Z,2.17
2018-02-08T11:48:56.487Z,2.07
2018-02-08T11:49:56.475Z,2.27
2018-02-08T11:50:56.429Z,2.37
2018-02-08T11:51:56.404Z,2.26
2018-02-08T11:52:56.387Z,2.37
2018-02-08T11:53:56.337Z,2.26
2018-02-08T11:54:56.315Z,2.47
2018-02-08T11:55:56.281Z,2.56
2018-02-08T11:56:56.254Z,2.37
2018-02-08T11:57:56.230Z,2.26
2018-02-08T11:58:56.193Z,2.26
2018-02-08T11:59:56.166Z,2.47
2018-02-08T12:00:56.133Z,2.37
2018-02-08T12:01:56.116Z,2.26
2018-02-08T12:02:56.082Z,2.47
2018-02-08T12:03:56.053Z,2.26
2018-02-08T12:04:56.036Z,2.37
2018-02-08T12:05:55.992Z,2.17
2018-02-08T12:06:55.964Z,2.56
2018-02-08T12:07:55.935Z,2.47
2018-02-08T12:08:55.902Z,2.37
2018-02-08T12:09:55.877Z,2.37
2018-02-08T12:10:55.851Z,2.37
2018-02-08T12:11:55.815Z,2.26
2018-02-08T12:12:55.793Z,2.26
2018-02-08T12:13:55.760Z,2.56
2018-02-08T12:14:55.733Z,2.26
2018-02-08T12:15:55.703Z,2.26
2018-02-08T12:16:55.672Z,2.17
2018-02-08T12:17:55.648Z,2.07
2018-02-08T12:18:55.613Z,2.17
2018-02-08T12:19:55.584Z,2.56
2018-02-08T12:20:55.555Z,2.36
2018-02-08T12:21:55.524Z,2.47
2018-02-08T12:22:55.499Z,2.07
2018-02-08T12:23:55.470Z,2.56
2018-02-08T12:24:55.441Z,2.47
2018-02-08T12:25:55.413Z,2.36
2018-02-08T12:26:55.380Z,2.36
2018-02-08T12:27:55.356Z,2.36
2018-02-08T12:28:55.331Z,2.26
2018-02-08T12:29:55.297Z,2.36
2018-02-08T12:30:55.270Z,2.26
2018-02-08T12:31:55.246Z,2.36
2018-02-08T12:32:55.208Z,2.26
2018-02-08T12:33:55.190Z,2.36
2018-02-08T12:34:55.151Z,2.36
2018-02-08T12:35:55.123Z,2.36
2018-02-08T12:36:55.095Z,2.47
2018-02-08T12:37:55.073Z,2.26
2018-02-08T12:38:55.078Z,2.26
2018-02-08T12:39:55.012Z,2.26
2018-02-08T12:40:54.984Z,2.36
2018-02-08T12:41:54.972Z,2.46
2018-02-08T12:42:54.919Z,2.26
2018-02-08T12:43:54.896Z,2.46
2018-02-08T12:44:54.866Z,2.46
2018-02-08T12:45:54.840Z,2.56
2018-02-08T12:46:54.818Z,2.46
2018-02-08T12:47:54.779Z,2.56
2018-02-08T12:48:54.748Z,2.46
2018-02-08T12:49:54.722Z,2.56
2018-02-08T12:50:54.695Z,2.46
2018-02-08T12:51:54.667Z,2.46
2018-02-08T12:52:54.638Z,2.46
2018-02-08T12:53:54.628Z,2.46
2018-02-08T12:54:54.583Z,2.76
2018-02-08T12:55:54.551Z,2.26
2018-02-08T12:56:54.522Z,2.46
2018-02-08T12:57:54.494Z,2.66
2018-02-08T12:58:54.468Z,2.95
2018-02-08T12:59:54.437Z,2.46
2018-02-08T13:00:54.411Z,2.66
2018-02-08T13:01:54.377Z,2.66
2018-02-08T13:02:54.369Z,2.56
2018-02-08T13:03:54.324Z,2.46
2018-02-08T13:04:54.292Z,2.46
2018-02-08T13:05:54.281Z,2.56
2018-02-08T13:06:54.237Z,2.46
2018-02-08T13:07:54.207Z,2.95
2018-02-08T13:08:54.176Z,2.95
2018-02-08T13:09:54.153Z,2.95
2018-02-08T13:10:54.129Z,3.05
2018-02-08T13:11:54.092Z,2.86
2018-02-08T13:12:54.076Z,2.95
2018-02-08T13:13:54.044Z,3.05
2018-02-08T13:14:54.011Z,2.85
2018-02-08T13:15:53.985Z,3.15